createdAt,value
2023-05-25T00:02:05.414Z,1.00
2023-05-25T00:04:35.437Z,1.00
2023-05-25T00:07:04.670Z,1.00
2023-05-25T00:09:33.042Z,1.00
2023-05-25T00:12:01.700Z,1.00
2023-05-25T00:14:31.745Z,1.00
2023-05-25T00:17:04.796Z,1.00
2023-05-25T00:19:33.270Z,1.00
2023-05-25T00:22:04.387Z,1.00
2023-05-25T00:24:33.071Z,1.00
2023-05-25T00:27:01.504Z,1.00
2023-05-25T00:29:30.277Z,1.00
2023-05-25T00:31:58.654Z,1.00
2023-05-25T00:34:27.052Z,1.00
2023-05-25T00:36:56.019Z,1.00
2023-05-25T00:39:24.778Z,1.00
2023-05-25T00:41:53.095Z,1.00
2023-05-25T00:44:22.369Z,1.00
2023-05-25T00:46:53.090Z,1.00
2023-05-25T00:49:25.662Z,1.00
2023-05-25T00:51:54.460Z,1.00
2023-05-25T00:54:23.302Z,1.00
2023-05-25T00:56:56.925Z,1.00
2023-05-25T00:59:42.043Z,1.00
2023-05-25T01:02:14.296Z,1.00
2023-05-25T01:04:47.927Z,1.00
2023-05-25T01:07:31.887Z,1.00
2023-05-25T01:10:03.188Z,1.00
2023-05-25T01:12:33.237Z,1.00
2023-05-25T01:15:02.975Z,1.00
2023-05-25T01:17:31.552Z,1.00
2023-05-25T01:20:09.757Z,1.00
2023-05-25T01:23:05.587Z,1.00
2023-05-25T01:25:44.904Z,1.00
2023-05-25T01:28:41.083Z,1.00
2023-05-25T01:31:10.426Z,1.00
2023-05-25T01:33:40.460Z,1.00
2023-05-25T01:36:08.988Z,1.00
2023-05-25T01:38:39.800Z,1.00
2023-05-25T01:41:08.182Z,1.00
2023-05-25T01:43:36.604Z,1.00
2023-05-25T01:46:25.709Z,1.00
2023-05-25T01:49:09.505Z,1.00
2023-05-25T01:51:48.646Z,1.00
2023-05-25T01:54:21.066Z,1.00
2023-05-25T01:56:52.836Z,1.00
2023-05-25T01:59:22.954Z,1.00
2023-05-25T02:01:53.584Z,1.00
2023-05-25T02:04:23.535Z,1.00
2023-05-25T02:06:53.547Z,1.00
2023-05-25T02:09:22.022Z,1.00
2023-05-25T02:11:50.844Z,1.00
2023-05-25T02:14:19.505Z,1.00
2023-05-25T02:16:47.926Z,1.00
2023-05-25T02:19:16.798Z,1.00
2023-05-25T02:21:45.333Z,1.00
2023-05-25T02:24:13.801Z,1.00
2023-05-25T02:26:42.261Z,1.00
2023-05-25T02:29:10.723Z,1.00
2023-05-25T02:31:39.202Z,1.00
2023-05-25T02:34:07.594Z,1.00
2023-05-25T02:36:37.114Z,1.00
2023-05-25T02:39:05.799Z,1.00
2023-05-25T02:41:34.128Z,1.00
2023-05-25T02:44:02.480Z,1.00
2023-05-25T02:46:31.241Z,1.00
2023-05-25T02:49:00.768Z,1.00
2023-05-25T02:51:30.244Z,1.00
2023-05-25T02:53:58.611Z,1.00
2023-05-25T02:56:28.394Z,1.00
2023-05-25T02:58:56.865Z,1.00
2023-05-25T03:01:26.214Z,1.00
2023-05-25T03:03:54.727Z,1.00
2023-05-25T03:06:23.799Z,1.00
2023-05-25T03:08:52.170Z,1.00
2023-05-25T03:11:20.522Z,1.00
2023-05-25T03:13:48.874Z,1.00
2023-05-25T03:16:17.274Z,1.00
2023-05-25T03:18:45.671Z,1.00
2023-05-25T03:21:14.093Z,1.00
2023-05-25T03:23:42.416Z,1.00
2023-05-25T03:26:10.797Z,1.00
2023-05-25T03:28:39.137Z,1.00
2023-05-25T03:31:07.485Z,1.00
2023-05-25T03:33:35.937Z,1.00
2023-05-25T03:36:08.627Z,1.00
2023-05-25T03:38:40.086Z,1.00
2023-05-25T03:41:08.425Z,1.00
2023-05-25T03:43:36.784Z,1.00
2023-05-25T03:46:05.184Z,1.00
2023-05-25T03:48:33.557Z,1.00
2023-05-25T03:51:01.882Z,1.00
2023-05-25T03:53:30.377Z,1.00
2023-05-25T03:55:58.976Z,1.00
2023-05-25T03:58:27.337Z,1.00
2023-05-25T04:00:56.992Z,1.00
2023-05-25T04:03:25.674Z,1.00
2023-05-25T04:05:54.311Z,1.00
2023-05-25T04:08:23.206Z,1.00
2023-05-25T04:10:51.735Z,1.00
2023-05-25T04:13:20.138Z,1.00
2023-05-25T04:15:48.855Z,1.00
2023-05-25T04:18:17.306Z,1.00
2023-05-25T04:20:47.979Z,1.00
2023-05-25T04:23:16.449Z,1.00
2023-05-25T04:25:46.233Z,1.00
2023-05-25T04:28:14.809Z,1.00
2023-05-25T04:30:43.251Z,1.00
2023-05-25T04:33:14.774Z,1.00
2023-05-25T04:35:43.257Z,1.00
2023-05-25T04:38:13.253Z,1.00
2023-05-25T04:40:42.641Z,1.00
2023-05-25T04:43:12.217Z,1.00
2023-05-25T04:45:40.845Z,1.00
2023-05-25T04:48:10.265Z,1.00
2023-05-25T04:50:40.969Z,1.00
2023-05-25T04:53:09.453Z,1.00
2023-05-25T04:55:37.867Z,1.00
2023-05-25T04:58:06.568Z,1.00
2023-05-25T05:00:35.252Z,1.00
2023-05-25T05:03:03.743Z,1.00
2023-05-25T05:05:32.234Z,1.00
2023-05-25T05:08:00.661Z,1.00
2023-05-25T05:10:29.017Z,1.00
2023-05-25T05:12:57.478Z,1.00
2023-05-25T05:15:25.924Z,1.00
2023-05-25T05:17:55.704Z,1.00
2023-05-25T05:20:24.178Z,1.00
2023-05-25T05:22:54.192Z,1.00
2023-05-25T05:25:22.558Z,1.00
2023-05-25T05:27:50.904Z,1.00
2023-05-25T05:30:19.482Z,1.00
2023-05-25T05:32:47.838Z,1.00
2023-05-25T05:35:16.346Z,1.00
2023-05-25T05:37:45.162Z,1.00
2023-05-25T05:40:13.714Z,1.00
2023-05-25T05:42:43.203Z,1.00
2023-05-25T05:45:12.021Z,1.00
2023-05-25T05:47:40.424Z,1.00
2023-05-25T05:50:09.305Z,1.00
2023-05-25T05:52:37.684Z,1.00
2023-05-25T05:55:07.134Z,1.00
2023-05-25T05:57:35.549Z,1.00
2023-05-25T06:00:07.436Z,1.00
2023-05-25T06:02:35.945Z,1.00
2023-05-25T06:05:04.747Z,1.00
2023-05-25T06:07:35.944Z,1.00
2023-05-25T06:10:04.464Z,1.00
2023-05-25T06:12:32.801Z,1.00
2023-05-25T06:15:01.915Z,1.00
2023-05-25T06:17:30.874Z,1.00
2023-05-25T06:19:59.264Z,1.00
2023-05-25T06:22:29.660Z,1.00
2023-05-25T06:24:58.238Z,1.00
2023-05-25T06:27:26.593Z,1.00
2023-05-25T06:29:55.016Z,1.00
2023-05-25T06:32:23.411Z,1.00
2023-05-25T06:34:51.758Z,1.00
2023-05-25T06:37:20.155Z,1.00
2023-05-25T06:39:48.720Z,1.00
2023-05-25T06:42:17.143Z,1.00
2023-05-25T06:44:45.544Z,1.00
2023-05-25T06:47:14.091Z,1.00
2023-05-25T06:49:42.425Z,1.00
2023-05-25T06:52:10.757Z,1.00
2023-05-25T06:54:39.173Z,1.00
2023-05-25T06:57:07.809Z,1.00
2023-05-25T06:59:36.259Z,1.00
2023-05-25T07:02:04.659Z,1.00
2023-05-25T07:04:33.862Z,1.00
2023-05-25T07:07:02.423Z,1.00
2023-05-25T07:09:31.075Z,1.00
2023-05-25T07:11:59.698Z,1.00
2023-05-25T07:14:28.136Z,1.00
2023-05-25T07:16:56.604Z,1.00
2023-05-25T07:19:24.995Z,1.00
2023-05-25T07:21:53.557Z,1.00
2023-05-25T07:24:22.028Z,1.00
2023-05-25T07:26:50.582Z,1.00
2023-05-25T07:29:19.048Z,1.00
2023-05-25T07:31:47.665Z,1.00
2023-05-25T07:34:16.431Z,1.00
2023-05-25T07:36:44.795Z,1.00
2023-05-25T07:39:13.154Z,1.00
2023-05-25T07:41:41.537Z,1.00
2023-05-25T07:44:09.971Z,1.00
2023-05-25T07:46:38.389Z,1.00
2023-05-25T07:49:09.052Z,1.00
2023-05-25T07:51:38.406Z,1.00
2023-05-25T07:54:06.803Z,1.00
2023-05-25T07:56:35.197Z,1.00
2023-05-25T07:59:03.655Z,1.00
2023-05-25T08:01:32.115Z,1.00
2023-05-25T08:04:00.772Z,1.00
2023-05-25T08:06:29.185Z,1.00
2023-05-25T08:08:57.610Z,1.00
2023-05-25T08:11:27.571Z,1.00
2023-05-25T08:13:55.941Z,1.00
2023-05-25T08:16:24.478Z,1.00
2023-05-25T08:18:53.283Z,1.00
2023-05-25T08:21:21.839Z,1.00
2023-05-25T08:23:51.438Z,1.00
2023-05-25T08:26:37.884Z,1.00
2023-05-25T08:29:08.263Z,1.00
2023-05-25T08:31:38.046Z,1.00
2023-05-25T08:34:06.526Z,1.00
2023-05-25T08:36:36.629Z,1.00
2023-05-25T08:39:05.656Z,1.00
2023-05-25T08:41:37.848Z,1.00
2023-05-25T08:44:08.976Z,1.00
2023-05-25T08:46:37.799Z,1.00
2023-05-25T08:49:11.589Z,1.00
2023-05-25T08:51:51.573Z,1.00
2023-05-25T08:54:55.309Z,1.00
2023-05-25T08:57:32.961Z,1.00
2023-05-25T09:00:12.263Z,1.00
2023-05-25T09:02:46.287Z,1.00
2023-05-25T09:05:15.565Z,1.00
2023-05-25T09:07:45.492Z,1.00
2023-05-25T09:10:15.334Z,1.00
2023-05-25T09:12:44.628Z,2.30
2023-05-25T09:15:13.603Z,7.00
2023-05-25T09:17:42.208Z,12.40
2023-05-25T09:20:14.526Z,19.30
2023-05-25T09:22:43.401Z,22.90
2023-05-25T09:25:12.980Z,25.60
2023-05-25T09:27:42.145Z,27.10
2023-05-25T09:30:10.866Z,31.60
2023-05-25T09:32:40.400Z,41.50
2023-05-25T09:35:13.473Z,47.70
2023-05-25T09:37:45.564Z,53.60
2023-05-25T09:40:15.410Z,56.40
2023-05-25T09:42:45.232Z,60.00
2023-05-25T09:45:13.664Z,64.20
2023-05-25T09:47:42.244Z,69.10
2023-05-25T09:50:12.203Z,72.90
2023-05-25T09:52:40.600Z,75.00
2023-05-25T09:55:11.633Z,77.30
2023-05-25T09:57:40.708Z,78.00
2023-05-25T10:00:10.914Z,81.10
2023-05-25T10:02:39.745Z,86.80
2023-05-25T10:05:08.568Z,88.20
2023-05-25T10:07:39.693Z,88.70
2023-05-25T10:10:09.461Z,89.20
2023-05-25T10:12:40.428Z,90.10
2023-05-25T10:15:10.531Z,90.30
2023-05-25T10:17:44.454Z,91.00
2023-05-25T10:20:15.256Z,91.30
2023-05-25T10:22:55.059Z,91.70
2023-05-25T10:25:40.756Z,92.70
2023-05-25T10:28:35.025Z,92.60
2023-05-25T10:31:04.956Z,93.20
2023-05-25T10:33:34.983Z,95.30
2023-05-25T10:38:36.812Z,95.40
2023-05-25T10:41:06.748Z,95.60
2023-05-25T10:43:35.243Z,95.40
2023-05-25T10:46:05.532Z,95.50
2023-05-25T10:48:39.231Z,95.90
2023-05-25T10:51:10.131Z,95.70
2023-05-25T10:53:40.361Z,95.50
2023-05-25T10:56:11.418Z,95.50
2023-05-25T10:58:47.212Z,95.90
2023-05-25T11:01:17.075Z,95.80
2023-05-25T11:03:49.192Z,97.10
2023-05-25T11:06:19.286Z,97.70
2023-05-25T11:08:57.636Z,97.30
2023-05-25T11:11:48.418Z,96.80
2023-05-25T11:14:30.508Z,96.70
2023-05-25T11:17:16.523Z,97.30
2023-05-25T11:19:48.750Z,97.70
2023-05-25T11:22:23.241Z,98.30
2023-05-25T11:24:54.911Z,99.10
2023-05-25T11:27:28.965Z,99.80
2023-05-25T11:29:59.068Z,99.90
2023-05-25T11:32:28.481Z,99.90
2023-05-25T11:34:58.939Z,99.90
2023-05-25T11:37:32.204Z,99.90
2023-05-25T11:40:00.675Z,99.90
2023-05-25T11:42:30.189Z,99.90
2023-05-25T11:45:03.646Z,99.90
2023-05-25T11:47:33.545Z,99.90
2023-05-25T11:50:02.992Z,99.90
2023-05-25T11:52:31.737Z,99.90
2023-05-25T11:55:00.236Z,99.90
2023-05-25T11:57:28.661Z,99.90
2023-05-25T12:00:01.037Z,99.90
2023-05-25T12:02:38.103Z,99.90
2023-05-25T12:05:09.494Z,99.90
2023-05-25T12:07:45.572Z,99.90
2023-05-25T12:10:19.082Z,99.90
2023-05-25T12:12:58.896Z,99.90
2023-05-25T12:15:27.857Z,99.90
2023-05-25T12:17:56.339Z,99.90
2023-05-25T12:20:24.895Z,99.90
2023-05-25T12:22:53.607Z,99.90
2023-05-25T12:25:23.469Z,99.90
2023-05-25T12:28:14.442Z,99.90
2023-05-25T12:30:42.975Z,99.90
2023-05-25T12:33:15.676Z,99.90
2023-05-25T12:35:50.857Z,99.90
2023-05-25T12:38:20.888Z,99.90
2023-05-25T12:41:05.365Z,99.90
2023-05-25T12:43:41.376Z,99.90
2023-05-25T12:46:09.983Z,99.90
2023-05-25T12:48:38.477Z,99.90
2023-05-25T12:51:06.838Z,99.90
2023-05-25T12:53:48.575Z,99.90
2023-05-25T12:56:17.072Z,99.90
2023-05-25T12:58:46.593Z,99.90
2023-05-25T13:01:14.915Z,99.90
2023-05-25T13:03:43.295Z,99.90
2023-05-25T13:06:11.644Z,99.90
2023-05-25T13:08:40.046Z,99.90
2023-05-25T13:11:08.470Z,99.90
2023-05-25T13:13:36.883Z,99.90
2023-05-25T13:16:05.486Z,99.90
2023-05-25T13:18:33.992Z,99.90
2023-05-25T13:21:02.488Z,99.90
2023-05-25T13:23:31.056Z,99.90
2023-05-25T13:25:59.507Z,99.90
2023-05-25T13:28:27.843Z,99.90
2023-05-25T13:30:56.216Z,99.90
2023-05-25T13:33:24.680Z,99.90
2023-05-25T13:35:59.368Z,99.90
2023-05-25T13:38:28.336Z,99.90
2023-05-25T13:40:57.524Z,99.90
2023-05-25T13:43:26.081Z,99.90
2023-05-25T13:45:55.030Z,99.90
2023-05-25T13:48:23.834Z,99.90
2023-05-25T13:50:52.257Z,99.90
2023-05-25T13:53:20.611Z,99.90
2023-05-25T13:55:49.523Z,99.90
2023-05-25T13:58:17.986Z,99.90
2023-05-25T14:00:46.421Z,99.90
2023-05-25T14:03:15.130Z,99.90
2023-05-25T14:05:43.861Z,99.90
2023-05-25T14:08:13.528Z,99.90
2023-05-25T14:10:44.132Z,99.90
2023-05-25T14:13:12.708Z,99.90
2023-05-25T14:15:41.140Z,99.90
2023-05-25T14:18:09.540Z,99.90
2023-05-25T14:20:40.950Z,99.90
2023-05-25T14:23:10.917Z,99.90
2023-05-25T14:25:41.914Z,99.90
2023-05-25T14:28:10.547Z,99.90
2023-05-25T14:30:38.897Z,99.90
2023-05-25T14:33:07.349Z,99.90
2023-05-25T14:35:35.788Z,94.20
2023-05-25T14:38:04.161Z,79.50
2023-05-25T14:40:32.580Z,64.20
2023-05-25T14:43:00.951Z,43.50
2023-05-25T14:45:29.297Z,23.00
2023-05-25T14:48:11.676Z,31.60
2023-05-25T14:50:45.171Z,44.60
2023-05-25T14:53:13.607Z,16.60
2023-05-25T14:55:42.319Z,1.00
2023-05-25T14:58:11.399Z,1.00
2023-05-25T15:00:39.835Z,1.00
2023-05-25T15:03:08.335Z,1.00
2023-05-25T15:05:36.741Z,1.00
2023-05-25T15:08:05.201Z,1.00
2023-05-25T15:10:33.534Z,1.00
2023-05-25T15:13:01.916Z,1.00
2023-05-25T15:15:30.396Z,1.00
2023-05-25T15:17:58.904Z,1.00
2023-05-25T15:20:27.337Z,1.00
2023-05-25T15:22:55.816Z,1.00
2023-05-25T15:25:35.146Z,1.00
2023-05-25T15:28:13.132Z,1.00
2023-05-25T15:30:41.575Z,1.00
2023-05-25T15:33:10.449Z,1.00
2023-05-25T15:35:38.849Z,1.00
2023-05-25T15:38:07.218Z,1.00
2023-05-25T15:40:37.793Z,1.00
2023-05-25T15:43:06.388Z,1.00
2023-05-25T15:45:34.819Z,1.00
2023-05-25T15:48:04.736Z,1.00
2023-05-25T15:50:33.108Z,1.00
2023-05-25T15:53:01.468Z,1.00
2023-05-25T15:55:29.990Z,1.00
2023-05-25T15:57:58.343Z,1.00
2023-05-25T16:00:27.772Z,1.00
2023-05-25T16:02:56.821Z,1.00
2023-05-25T16:05:25.216Z,1.00
2023-05-25T16:07:53.699Z,1.00
2023-05-25T16:10:22.155Z,1.00
2023-05-25T16:12:50.491Z,1.00
2023-05-25T16:15:18.947Z,1.00
2023-05-25T16:17:47.298Z,1.00
2023-05-25T16:20:17.890Z,1.00
2023-05-25T16:22:46.759Z,1.00
2023-05-25T16:25:15.172Z,1.00
2023-05-25T16:27:43.596Z,1.00
2023-05-25T16:30:13.548Z,1.00
2023-05-25T16:32:42.119Z,1.00
2023-05-25T16:35:10.657Z,1.00
2023-05-25T16:37:39.030Z,1.00
2023-05-25T16:40:08.322Z,1.00
2023-05-25T16:42:36.729Z,1.00
2023-05-25T16:45:05.360Z,1.00
2023-05-25T16:47:34.119Z,1.00
2023-05-25T16:50:02.569Z,1.00
2023-05-25T16:52:30.936Z,1.00
2023-05-25T16:54:59.973Z,1.00
2023-05-25T16:57:28.660Z,1.00
2023-05-25T16:59:56.989Z,1.00
2023-05-25T17:02:25.419Z,1.00
2023-05-25T17:04:53.845Z,1.00
2023-05-25T17:07:22.234Z,1.00
2023-05-25T17:09:50.620Z,1.00
2023-05-25T17:12:18.994Z,1.00
2023-05-25T17:14:47.329Z,1.00
2023-05-25T17:17:15.767Z,1.00
2023-05-25T17:19:44.158Z,1.00
2023-05-25T17:22:12.602Z,1.00
2023-05-25T17:24:41.092Z,1.00
2023-05-25T17:27:09.615Z,1.00
2023-05-25T17:29:38.607Z,1.00
2023-05-25T17:32:07.300Z,1.00
2023-05-25T17:34:35.762Z,1.00
2023-05-25T17:37:04.698Z,1.00
2023-05-25T17:39:33.047Z,1.00
2023-05-25T17:42:02.272Z,1.00
2023-05-25T17:44:30.790Z,1.00
2023-05-25T17:46:59.335Z,1.00
2023-05-25T17:49:27.711Z,1.00
2023-05-25T17:51:56.120Z,1.00
2023-05-25T17:54:26.400Z,1.00
2023-05-25T17:56:55.262Z,1.00
2023-05-25T17:59:23.874Z,1.00
2023-05-25T18:01:52.810Z,1.00
2023-05-25T18:04:21.488Z,1.00
2023-05-25T18:06:53.146Z,1.00
2023-05-25T18:09:21.767Z,1.00
2023-05-25T18:11:50.801Z,1.00
2023-05-25T18:14:20.243Z,1.00
2023-05-25T18:16:48.682Z,1.00
2023-05-25T18:19:19.098Z,1.00
2023-05-25T18:21:47.700Z,1.00
2023-05-25T18:24:16.153Z,1.00
2023-05-25T18:26:44.783Z,1.00
2023-05-25T18:29:13.475Z,1.00
2023-05-25T18:31:46.378Z,1.00
2023-05-25T18:34:15.524Z,1.00
2023-05-25T18:36:43.899Z,1.00
2023-05-25T18:39:12.321Z,1.00
2023-05-25T18:41:40.791Z,1.00
2023-05-25T18:44:09.888Z,1.00
2023-05-25T18:46:40.849Z,1.00
2023-05-25T18:49:09.578Z,1.00
2023-05-25T18:51:38.338Z,1.00
2023-05-25T18:54:06.842Z,1.00
2023-05-25T18:56:35.222Z,1.00
2023-05-25T18:59:03.680Z,1.00
2023-05-25T19:01:32.091Z,1.00
2023-05-25T19:04:00.500Z,1.00
2023-05-25T19:06:28.960Z,1.00
2023-05-25T19:08:57.506Z,1.00
2023-05-25T19:11:25.925Z,1.00
2023-05-25T19:13:54.256Z,1.00
2023-05-25T19:16:22.888Z,1.00
2023-05-25T19:18:51.243Z,1.00
2023-05-25T19:21:19.668Z,1.00
2023-05-25T19:23:48.074Z,1.00
2023-05-25T19:26:16.804Z,1.00
2023-05-25T19:28:45.178Z,1.00
2023-05-25T19:31:13.740Z,1.00
2023-05-25T19:33:42.253Z,1.00
2023-05-25T19:36:10.666Z,1.00
2023-05-25T19:38:41.697Z,1.00
2023-05-25T19:41:10.733Z,1.00
2023-05-25T19:43:39.120Z,1.00
2023-05-25T19:46:07.634Z,1.00
2023-05-25T19:48:36.149Z,1.00
2023-05-25T19:51:04.658Z,1.00
2023-05-25T19:53:33.191Z,1.00
2023-05-25T19:56:01.613Z,1.00
2023-05-25T19:58:30.091Z,1.00
2023-05-25T20:00:58.860Z,1.00
2023-05-25T20:03:27.370Z,1.00
2023-05-25T20:05:57.048Z,1.00
2023-05-25T20:08:27.348Z,1.00
2023-05-25T20:10:56.396Z,1.00
2023-05-25T20:13:24.888Z,1.00
2023-05-25T20:15:53.276Z,1.00
2023-05-25T20:18:22.036Z,1.00
2023-05-25T20:20:53.259Z,1.00
2023-05-25T20:23:21.772Z,1.00
2023-05-25T20:25:50.112Z,1.00
2023-05-25T20:28:19.407Z,1.00
2023-05-25T20:30:47.888Z,1.00
2023-05-25T20:33:16.371Z,1.00
2023-05-25T20:35:44.985Z,1.00
2023-05-25T20:38:13.469Z,1.00
2023-05-25T20:40:41.971Z,1.00
2023-05-25T20:43:10.297Z,1.00
2023-05-25T20:45:39.400Z,1.00
2023-05-25T20:48:07.976Z,1.00
2023-05-25T20:50:36.714Z,1.00
2023-05-25T20:53:05.180Z,1.00
2023-05-25T20:55:33.577Z,1.00
2023-05-25T20:58:02.149Z,1.00
2023-05-25T21:00:30.646Z,1.00
2023-05-25T21:02:59.151Z,1.00
2023-05-25T21:05:27.584Z,1.00
2023-05-25T21:07:56.032Z,1.00
2023-05-25T21:10:24.417Z,1.00
2023-05-25T21:12:52.788Z,1.00
2023-05-25T21:15:21.190Z,1.00
2023-05-25T21:17:49.584Z,1.00
2023-05-25T21:20:18.122Z,1.00
2023-05-25T21:22:46.853Z,1.00
2023-05-25T21:25:15.204Z,1.00
2023-05-25T21:27:43.577Z,1.00
2023-05-25T21:30:12.385Z,1.00
2023-05-25T21:32:41.368Z,1.00
2023-05-25T21:35:09.890Z,1.00
2023-05-25T21:37:38.257Z,1.00
2023-05-25T21:40:07.789Z,1.00
2023-05-25T21:42:36.255Z,1.00
2023-05-25T21:45:05.228Z,1.00
2023-05-25T21:47:33.785Z,1.00
2023-05-25T21:50:02.235Z,1.00
2023-05-25T21:52:30.595Z,1.00
2023-05-25T21:54:59.033Z,1.00
2023-05-25T21:57:27.436Z,1.00
2023-05-25T21:59:55.887Z,1.00
2023-05-25T22:02:24.504Z,1.00
2023-05-25T22:04:52.959Z,1.00
2023-05-25T22:07:21.332Z,1.00
2023-05-25T22:09:49.659Z,1.00
2023-05-25T22:12:18.092Z,1.00
2023-05-25T22:14:46.466Z,1.00
2023-05-25T22:17:16.062Z,1.00
2023-05-25T22:19:47.111Z,1.00
2023-05-25T22:22:20.678Z,1.00
2023-05-25T22:24:49.112Z,1.00
2023-05-25T22:27:17.485Z,1.00
2023-05-25T22:29:45.831Z,1.00
2023-05-25T22:32:14.348Z,1.00
2023-05-25T22:34:42.670Z,1.00
2023-05-25T22:37:12.328Z,1.00
2023-05-25T22:39:40.938Z,1.00
2023-05-25T22:42:09.346Z,1.00
2023-05-25T22:44:37.696Z,1.00
2023-05-25T22:47:07.791Z,1.00
2023-05-25T22:49:43.056Z,1.00
2023-05-25T22:52:12.949Z,1.00
2023-05-25T22:54:41.417Z,1.00
2023-05-25T22:57:10.830Z,1.00
2023-05-25T22:59:39.214Z,1.00
2023-05-25T23:02:08.020Z,1.00
2023-05-25T23:04:41.007Z,1.00
2023-05-25T23:07:09.405Z,1.00
2023-05-25T23:09:37.729Z,1.00
2023-05-25T23:12:07.069Z,1.00
2023-05-25T23:14:36.555Z,1.00
2023-05-25T23:17:05.016Z,1.00
2023-05-25T23:19:33.414Z,1.00
2023-05-25T23:22:01.791Z,1.00
2023-05-25T23:24:30.126Z,1.00
2023-05-25T23:26:58.468Z,1.00
2023-05-25T23:29:26.796Z,1.00
2023-05-25T23:31:55.466Z,1.00
2023-05-25T23:34:24.160Z,1.00
2023-05-25T23:36:54.705Z,1.00
2023-05-25T23:39:23.098Z,1.00
2023-05-25T23:41:51.587Z,1.00
2023-05-25T23:44:19.932Z,1.00
2023-05-25T23:46:48.408Z,1.00
2023-05-25T23:49:17.038Z,1.00
2023-05-25T23:51:45.460Z,1.00
2023-05-25T23:54:13.819Z,1.00
2023-05-25T23:56:42.154Z,1.00
2023-05-25T23:59:10.485Z,1.00
